Aviation Digital Data Service (ADDS)

Output produced by TAFs form (1919 UTC 23 July 2017)
found at http://www.aviationweather.gov/adds/tafs/
 
METAR text: WADD 231900Z 10007KT 9999 SCT017 25/20 Q1012 NOSIG
Conditions at: WADD (BALI INTL , ID) observed 1900 UTC 23 July 2017
Temperature: 25.0°C (77°F)
Dewpoint: 20.0°C (68°F) [RH = 74%]
Pressure (altimeter): 29.88 inches Hg (1012.0 mb)
Winds: from the E (100 degrees) at 8 MPH (7 knots; 3.6 m/s)
Visibility: 6 or more miles (10+ km)
Ceiling: at least 12,000 feet AGL
Clouds: scattered clouds at 1700 feet AGL
Weather: no significant weather observed at this time

Forecast for: WADD (BALI INTL , ID)
Text: TAF WADD 231700Z 2318/2418 09010KT 9999 SCT016
Forecast period: 1800 UTC 23 July 2017 to 1800 UTC 24 July 2017
Forecast type: FROM: standard forecast or significant change
Winds: from the E (90 degrees) at 12 MPH (10 knots; 5.2 m/s)
Visibility: 6 or more miles (10+ km)
Clouds: scattered clouds at 1600 feet AGL
Weather: no significant weather forecast for this period